Fidato — PB5970 — position and weather

sailwx.info

Track history (hours):
 
Tides and Currents Weather Stations Pressure Air Temp Water Temp Dewpoint Dewpoint Depression Visibility Wind Speed Wind Dir Waves Ship Positions

Fidato

Last reported at 2015-Jan-29 10:04 UTC. Time now 2015-Jan-30 20:09 UTC.
Position N 49°25' E 008°30'.

Length 135 m; draft 2.5 m.

Type: Ship. MMSI: 244670975.

Date/timePositionNaut miles runAvg speedWind from/ knotsBaromVisibWave heightAir tempDewpointWater temp
2015-Jan-29 10:04N 49°25' E 008°30'510.8
2015-Jan-29 09:34N 49°20' E 008°27'9 9.1
2015-Jan-29 08:33N 49°11' E 008°23'1110.8
2015-Jan-29 07:33N 49°01' E 008°18'1 0.9
2015-Jan-29 06:33N 49°01' E 008°20'0 0.0
2015-Jan-29 05:33N 49°01' E 008°20'0 0.0
2015-Jan-29 04:33N 49°01' E 008°20'0 0.0
2015-Jan-29 03:33N 49°01' E 008°20'0 0.0
2015-Jan-29 02:33N 49°01' E 008°20'0 0.0
2015-Jan-29 01:33N 49°01' E 008°20'0 0.0
2015-Jan-29 00:33N 49°01' E 008°20'0 0.0
2015-Jan-28 23:33N 49°01' E 008°20'0 0.0
2015-Jan-28 22:33N 49°01' E 008°20'0 0.0
2015-Jan-28 21:33N 49°01' E 008°20'0 0.0
2015-Jan-28 20:33N 49°01' E 008°20'0 0.0
2015-Jan-28 19:33N 49°01' E 008°20'0 0.0
2015-Jan-28 18:33N 49°01' E 008°20'0 0.0
2015-Jan-28 17:34N 49°01' E 008°20'0 0.0
2015-Jan-28 16:33N 49°01' E 008°20'0 0.0
2015-Jan-28 15:33N 49°01' E 008°20'0 0.0
2015-Jan-28 14:33N 49°01' E 008°20'1 0.9
2015-Jan-28 13:33N 49°01' E 008°18'0 0.0
2015-Jan-28 12:33N 49°01' E 008°18'0 0.0
2015-Jan-28 11:33N 49°01' E 008°18'0 0.0
2015-Jan-28 10:33N 49°01' E 008°18'0 0.0
2015-Jan-28 09:33N 49°01' E 008°18'0 0.0
2015-Jan-28 08:33N 49°01' E 008°18'0 0.0
2015-Jan-28 07:33N 49°01' E 008°18'0 0.0
2015-Jan-28 06:33N 49°01' E 008°18'0 0.0
2015-Jan-28 05:33N 49°01' E 008°18'0 0.0
2015-Jan-28 04:34N 49°01' E 008°18'0 0.0
2015-Jan-28 03:33N 49°01' E 008°18'0 0.0
2015-Jan-28 02:33N 49°01' E 008°18'0 0.0
2015-Jan-28 01:33N 49°01' E 008°18'0 0.0
2015-Jan-28 00:33N 49°01' E 008°18'2 1.6
2015-Jan-27 23:33N 49°03' E 008°18'4 3.9
2015-Jan-27 22:33N 49°06' E 008°21'4 3.5
2015-Jan-27 21:33N 49°09' E 008°22'4 3.7
2015-Jan-27 20:33N 49°13' E 008°23'4 3.7
2015-Jan-27 19:33N 49°16' E 008°27'3 3.0
2015-Jan-27 18:33N 49°19' E 008°27'5 4.5
2015-Jan-27 17:31N 49°23' E 008°30'  
2015-Jan-24 15:33N 50°49' E 007°02'3 2.9
2015-Jan-24 14:29N 50°52' E 007°01'2 2.3
2015-Jan-24 13:30N 50°54' E 006°60'15 3.9
2015-Jan-24 09:34N 51°08' E 006°51'2 2.2
2015-Jan-24 08:33N 51°09' E 006°48'3 3.5
2015-Jan-24 07:33N 51°11' E 006°44'3 2.7
2015-Jan-24 06:33N 51°14' E 006°46'54 2.5
2015-Jan-23 08:31N 51°53' E 005°46'6 6.3
2015-Jan-23 07:33N 51°54' E 005°36'6 5.8
2015-Jan-23 06:33N 51°53' E 005°27'6 5.8
2015-Jan-23 05:33N 51°48' E 005°21'5 5.0
2015-Jan-23 04:33N 51°49' E 005°13'1 1.4
2015-Jan-23 03:33N 51°49' E 005°11'0 0.0
2015-Jan-23 02:33N 51°49' E 005°11'0 0.0
2015-Jan-23 01:33N 51°49' E 005°11'0 0.0
2015-Jan-23 00:33N 51°49' E 005°11'0 0.0
2015-Jan-22 23:34N 51°49' E 005°11'0 0.0
2015-Jan-22 22:33N 51°49' E 005°11'2 1.5
2015-Jan-22 21:33N 51°49' E 005°09'4 4.4
2015-Jan-22 20:33N 51°49' E 005°01'6 5.5
2015-Jan-22 19:33N 51°49' E 004°53'7 6.6
2015-Jan-22 18:33N 51°49' E 004°42'2 2.1
2015-Jan-22 17:33N 51°48' E 004°39'6 6.2
2015-Jan-22 16:33N 51°50' E 004°29'9 8.8
2015-Jan-22 15:33N 51°52' E 004°15'9 8.6
2015-Jan-22 14:33N 51°56' E 004°03'0 0.3
2015-Jan-22 13:33N 51°56' E 004°02'0 0.0
2015-Jan-22 12:33N 51°56' E 004°02'0 0.0
2015-Jan-22 11:33N 51°56' E 004°02'0 0.2
2015-Jan-22 10:33N 51°56' E 004°02'0 0.0
2015-Jan-22 09:33N 51°56' E 004°02'4 3.9
2015-Jan-22 08:33N 51°59' E 004°07'1110.7
2015-Jan-22 07:33N 51°54' E 004°23'8 8.0
2015-Jan-22 06:33N 51°54' E 004°36'9 8.5
2015-Jan-22 05:33N 51°56' E 004°49'1 1.2
2015-Jan-22 04:33N 51°56' E 004°51'0 0.0
2015-Jan-22 03:33N 51°56' E 004°51'0 0.0
2015-Jan-22 02:33N 51°56' E 004°51'0 0.0
2015-Jan-22 01:33N 51°56' E 004°51'0 0.0
2015-Jan-22 00:33N 51°56' E 004°51'0 0.0
2015-Jan-21 23:33N 51°56' E 004°51'0 0.0
2015-Jan-21 22:50N 51°56' E 004°51'0 0.0
2015-Jan-21 22:46N 51°56' E 004°51'0 0.0
2015-Jan-21 22:33N 51°56' E 004°51'2 2.1
2015-Jan-21 21:33N 51°57' E 004°54'9 8.6
2015-Jan-21 20:33N 52°01' E 005°06'0 0.4
2015-Jan-21 19:33N 52°01' E 005°07'7 6.8
2015-Jan-21 18:33N 52°08' E 005°03'8 8.1
2015-Jan-21 17:33N 52°16' E 005°01'8 7.6
2015-Jan-21 16:33N 52°23' E 004°57'0 0.0
2015-Jan-21 15:33N 52°23' E 004°57'0 0.0
2015-Jan-21 14:33N 52°23' E 004°57'0 0.0
2015-Jan-21 13:33N 52°23' E 004°57'0 0.0
2015-Jan-21 12:33N 52°23' E 004°57'0 0.0
2015-Jan-21 11:33N 52°23' E 004°57'5 5.3
2015-Jan-21 10:33N 52°18' E 005°01'8 7.1
2015-Jan-21 09:27N 52°10' E 004°60'6 6.6
2015-Jan-21 08:33N 52°05' E 005°05'5 4.7
2015-Jan-21 07:33N 52°01' E 005°07'4 4.2
2015-Jan-21 06:33N 51°58' E 005°01'6 6.2
2015-Jan-21 05:33N 51°56' E 004°52'0 0.5
2015-Jan-21 04:33N 51°56' E 004°51'0 0.0
2015-Jan-21 03:33N 51°56' E 004°51'0 0.0
2015-Jan-21 02:32N 51°56' E 004°51'0 0.0
2015-Jan-21 01:33N 51°56' E 004°51'0 0.0
2015-Jan-21 00:33N 51°56' E 004°51'0 0.0
2015-Jan-20 23:33N 51°56' E 004°51'0 0.0
2015-Jan-20 22:33N 51°56' E 004°51'0 0.0
2015-Jan-20 21:33N 51°56' E 004°51'0 0.0
2015-Jan-20 20:33N 51°56' E 004°51'2 2.4
2015-Jan-20 19:33N 51°55' E 004°47'7 7.2
2015-Jan-20 18:33N 51°54' E 004°36'6 6.2
2015-Jan-20 17:33N 51°54' E 004°26'6 6.3
2015-Jan-20 16:33N 51°52' E 004°16'2 2.4
2015-Jan-20 15:33N 51°54' E 004°14'0 0.0
2015-Jan-20 14:33N 51°54' E 004°14'0 0.2
2015-Jan-20 13:33N 51°54' E 004°14'0 0.0
2015-Jan-20 12:33N 51°54' E 004°14'0 0.0
2015-Jan-20 11:33N 51°54' E 004°14'0 0.0
2015-Jan-20 10:33N 51°54' E 004°14'0 0.0
2015-Jan-20 09:33N 51°54' E 004°14'0 0.0
2015-Jan-20 08:33N 51°54' E 004°14'0 0.0
2015-Jan-20 07:33N 51°54' E 004°14'0 0.0
2015-Jan-20 06:33N 51°54' E 004°14'0 0.0
2015-Jan-20 05:33N 51°54' E 004°14'0 0.1
2015-Jan-20 04:33N 51°54' E 004°14'0 0.0
2015-Jan-20 03:33N 51°54' E 004°14'0 0.0
2015-Jan-20 02:33N 51°54' E 004°14'0 0.0
2015-Jan-20 01:33N 51°54' E 004°14'0 0.0
2015-Jan-20 00:34N 51°54' E 004°14'0 0.1
2015-Jan-19 23:33N 51°54' E 004°14'0 0.1
2015-Jan-19 22:33N 51°54' E 004°14'0 0.0
2015-Jan-19 21:33N 51°54' E 004°14'0 0.0
2015-Jan-19 20:33N 51°54' E 004°14'0 0.2
2015-Jan-19 19:33N 51°54' E 004°14'0 0.1
2015-Jan-19 18:33N 51°54' E 004°14'1 0.6
2015-Jan-19 17:33N 51°53' E 004°14'7 6.8
2015-Jan-19 16:34N 51°51' E 004°24'7 6.6
2015-Jan-19 15:34N 51°49' E 004°34'7 7.2
2015-Jan-19 14:33N 51°49' E 004°46'8 8.1
2015-Jan-19 13:33N 51°49' E 004°59'9 9.0
2015-Jan-19 12:33N 51°49' E 005°13'8 7.6
2015-Jan-19 11:33N 51°51' E 005°25'9 8.7
2015-Jan-19 10:33N 51°54' E 005°39'  
Track history (hours):
 
Tides and Currents Weather Stations Pressure Air Temp Water Temp Dewpoint Dewpoint Depression Visibility Wind Speed Wind Dir Waves Ship Positions

Fidato

Last reported at 2015-Jan-29 10:04 UTC. Time now 2015-Jan-30 20:09 UTC.
Position N 49°25' E 008°30'.

Length 135 m; draft 2.5 m.

Type: Ship. MMSI: 244670975.

Date/timePositionNaut miles runAvg speedWind from/ knotsBaromVisibWave heightAir tempDewpointWater temp
2015-Jan-29 10:04N 49°25' E 008°30'510.8
2015-Jan-29 09:34N 49°20' E 008°27'9 9.1
2015-Jan-29 08:33N 49°11' E 008°23'1110.8
2015-Jan-29 07:33N 49°01' E 008°18'1 0.9
2015-Jan-29 06:33N 49°01' E 008°20'0 0.0
2015-Jan-29 05:33N 49°01' E 008°20'0 0.0
2015-Jan-29 04:33N 49°01' E 008°20'0 0.0
2015-Jan-29 03:33N 49°01' E 008°20'0 0.0
2015-Jan-29 02:33N 49°01' E 008°20'0 0.0
2015-Jan-29 01:33N 49°01' E 008°20'0 0.0
2015-Jan-29 00:33N 49°01' E 008°20'0 0.0
2015-Jan-28 23:33N 49°01' E 008°20'0 0.0
2015-Jan-28 22:33N 49°01' E 008°20'0 0.0
2015-Jan-28 21:33N 49°01' E 008°20'0 0.0
2015-Jan-28 20:33N 49°01' E 008°20'0 0.0
2015-Jan-28 19:33N 49°01' E 008°20'0 0.0
2015-Jan-28 18:33N 49°01' E 008°20'0 0.0
2015-Jan-28 17:34N 49°01' E 008°20'0 0.0
2015-Jan-28 16:33N 49°01' E 008°20'0 0.0
2015-Jan-28 15:33N 49°01' E 008°20'0 0.0
2015-Jan-28 14:33N 49°01' E 008°20'1 0.9
2015-Jan-28 13:33N 49°01' E 008°18'0 0.0
2015-Jan-28 12:33N 49°01' E 008°18'0 0.0
2015-Jan-28 11:33N 49°01' E 008°18'0 0.0
2015-Jan-28 10:33N 49°01' E 008°18'0 0.0
2015-Jan-28 09:33N 49°01' E 008°18'0 0.0
2015-Jan-28 08:33N 49°01' E 008°18'0 0.0
2015-Jan-28 07:33N 49°01' E 008°18'0 0.0
2015-Jan-28 06:33N 49°01' E 008°18'0 0.0
2015-Jan-28 05:33N 49°01' E 008°18'0 0.0
2015-Jan-28 04:34N 49°01' E 008°18'0 0.0
2015-Jan-28 03:33N 49°01' E 008°18'0 0.0
2015-Jan-28 02:33N 49°01' E 008°18'0 0.0
2015-Jan-28 01:33N 49°01' E 008°18'0 0.0
2015-Jan-28 00:33N 49°01' E 008°18'2 1.6
2015-Jan-27 23:33N 49°03' E 008°18'4 3.9
2015-Jan-27 22:33N 49°06' E 008°21'4 3.5
2015-Jan-27 21:33N 49°09' E 008°22'4 3.7
2015-Jan-27 20:33N 49°13' E 008°23'4 3.7
2015-Jan-27 19:33N 49°16' E 008°27'3 3.0
2015-Jan-27 18:33N 49°19' E 008°27'5 4.5
2015-Jan-27 17:31N 49°23' E 008°30'  
2015-Jan-24 15:33N 50°49' E 007°02'3 2.9
2015-Jan-24 14:29N 50°52' E 007°01'2 2.3
2015-Jan-24 13:30N 50°54' E 006°60'15 3.9
2015-Jan-24 09:34N 51°08' E 006°51'2 2.2
2015-Jan-24 08:33N 51°09' E 006°48'3 3.5
2015-Jan-24 07:33N 51°11' E 006°44'3 2.7
2015-Jan-24 06:33N 51°14' E 006°46'54 2.5
2015-Jan-23 08:31N 51°53' E 005°46'6 6.3
2015-Jan-23 07:33N 51°54' E 005°36'6 5.8
2015-Jan-23 06:33N 51°53' E 005°27'6 5.8
2015-Jan-23 05:33N 51°48' E 005°21'5 5.0
2015-Jan-23 04:33N 51°49' E 005°13'1 1.4
2015-Jan-23 03:33N 51°49' E 005°11'0 0.0
2015-Jan-23 02:33N 51°49' E 005°11'0 0.0
2015-Jan-23 01:33N 51°49' E 005°11'0 0.0
2015-Jan-23 00:33N 51°49' E 005°11'0 0.0
2015-Jan-22 23:34N 51°49' E 005°11'0 0.0
2015-Jan-22 22:33N 51°49' E 005°11'2 1.5
2015-Jan-22 21:33N 51°49' E 005°09'4 4.4
2015-Jan-22 20:33N 51°49' E 005°01'6 5.5
2015-Jan-22 19:33N 51°49' E 004°53'7 6.6
2015-Jan-22 18:33N 51°49' E 004°42'2 2.1
2015-Jan-22 17:33N 51°48' E 004°39'6 6.2
2015-Jan-22 16:33N 51°50' E 004°29'9 8.8
2015-Jan-22 15:33N 51°52' E 004°15'9 8.6
2015-Jan-22 14:33N 51°56' E 004°03'0 0.3
2015-Jan-22 13:33N 51°56' E 004°02'0 0.0
2015-Jan-22 12:33N 51°56' E 004°02'0 0.0
2015-Jan-22 11:33N 51°56' E 004°02'0 0.2
2015-Jan-22 10:33N 51°56' E 004°02'0 0.0
2015-Jan-22 09:33N 51°56' E 004°02'4 3.9
2015-Jan-22 08:33N 51°59' E 004°07'1110.7
2015-Jan-22 07:33N 51°54' E 004°23'8 8.0
2015-Jan-22 06:33N 51°54' E 004°36'9 8.5
2015-Jan-22 05:33N 51°56' E 004°49'1 1.2
2015-Jan-22 04:33N 51°56' E 004°51'0 0.0
2015-Jan-22 03:33N 51°56' E 004°51'0 0.0
2015-Jan-22 02:33N 51°56' E 004°51'0 0.0
2015-Jan-22 01:33N 51°56' E 004°51'0 0.0
2015-Jan-22 00:33N 51°56' E 004°51'0 0.0
2015-Jan-21 23:33N 51°56' E 004°51'0 0.0
2015-Jan-21 22:50N 51°56' E 004°51'0 0.0
2015-Jan-21 22:46N 51°56' E 004°51'0 0.0
2015-Jan-21 22:33N 51°56' E 004°51'2 2.1
2015-Jan-21 21:33N 51°57' E 004°54'9 8.6
2015-Jan-21 20:33N 52°01' E 005°06'0 0.4
2015-Jan-21 19:33N 52°01' E 005°07'7 6.8
2015-Jan-21 18:33N 52°08' E 005°03'8 8.1
2015-Jan-21 17:33N 52°16' E 005°01'8 7.6
2015-Jan-21 16:33N 52°23' E 004°57'0 0.0
2015-Jan-21 15:33N 52°23' E 004°57'0 0.0
2015-Jan-21 14:33N 52°23' E 004°57'0 0.0
2015-Jan-21 13:33N 52°23' E 004°57'0 0.0
2015-Jan-21 12:33N 52°23' E 004°57'0 0.0
2015-Jan-21 11:33N 52°23' E 004°57'5 5.3
2015-Jan-21 10:33N 52°18' E 005°01'8 7.1
2015-Jan-21 09:27N 52°10' E 004°60'6 6.6
2015-Jan-21 08:33N 52°05' E 005°05'5 4.7
2015-Jan-21 07:33N 52°01' E 005°07'4 4.2
2015-Jan-21 06:33N 51°58' E 005°01'6 6.2
2015-Jan-21 05:33N 51°56' E 004°52'0 0.5
2015-Jan-21 04:33N 51°56' E 004°51'0 0.0
2015-Jan-21 03:33N 51°56' E 004°51'0 0.0
2015-Jan-21 02:32N 51°56' E 004°51'0 0.0
2015-Jan-21 01:33N 51°56' E 004°51'0 0.0
2015-Jan-21 00:33N 51°56' E 004°51'0 0.0
2015-Jan-20 23:33N 51°56' E 004°51'0 0.0
2015-Jan-20 22:33N 51°56' E 004°51'0 0.0
2015-Jan-20 21:33N 51°56' E 004°51'0 0.0
2015-Jan-20 20:33N 51°56' E 004°51'2 2.4
2015-Jan-20 19:33N 51°55' E 004°47'7 7.2
2015-Jan-20 18:33N 51°54' E 004°36'6 6.2
2015-Jan-20 17:33N 51°54' E 004°26'6 6.3
2015-Jan-20 16:33N 51°52' E 004°16'2 2.4
2015-Jan-20 15:33N 51°54' E 004°14'0 0.0
2015-Jan-20 14:33N 51°54' E 004°14'0 0.2
2015-Jan-20 13:33N 51°54' E 004°14'0 0.0
2015-Jan-20 12:33N 51°54' E 004°14'0 0.0
2015-Jan-20 11:33N 51°54' E 004°14'0 0.0
2015-Jan-20 10:33N 51°54' E 004°14'0 0.0
2015-Jan-20 09:33N 51°54' E 004°14'0 0.0
2015-Jan-20 08:33N 51°54' E 004°14'0 0.0
2015-Jan-20 07:33N 51°54' E 004°14'0 0.0
2015-Jan-20 06:33N 51°54' E 004°14'0 0.0
2015-Jan-20 05:33N 51°54' E 004°14'0 0.1
2015-Jan-20 04:33N 51°54' E 004°14'0 0.0
2015-Jan-20 03:33N 51°54' E 004°14'0 0.0
2015-Jan-20 02:33N 51°54' E 004°14'0 0.0
2015-Jan-20 01:33N 51°54' E 004°14'0 0.0
2015-Jan-20 00:34N 51°54' E 004°14'0 0.1
2015-Jan-19 23:33N 51°54' E 004°14'0 0.1
2015-Jan-19 22:33N 51°54' E 004°14'0 0.0
2015-Jan-19 21:33N 51°54' E 004°14'0 0.0
2015-Jan-19 20:33N 51°54' E 004°14'0 0.2
2015-Jan-19 19:33N 51°54' E 004°14'0 0.1
2015-Jan-19 18:33N 51°54' E 004°14'1 0.6
2015-Jan-19 17:33N 51°53' E 004°14'7 6.8
2015-Jan-19 16:34N 51°51' E 004°24'7 6.6
2015-Jan-19 15:34N 51°49' E 004°34'7 7.2
2015-Jan-19 14:33N 51°49' E 004°46'8 8.1
2015-Jan-19 13:33N 51°49' E 004°59'9 9.0
2015-Jan-19 12:33N 51°49' E 005°13'8 7.6
2015-Jan-19 11:33N 51°51' E 005°25'9 8.7
2015-Jan-19 10:33N 51°54' E 005°39'  

Dump ship's entire track history